Tiempo atmosférico en la estación meteorológica de Azpeitia, Gipuzkoa (180 m.)

Fecha
DESCASC
Temp. máxima en grados centígrados (hora)
DESCASC
Temp. mínima en grados centígrados (hora)
DESCASC
Temp. media en grados centígrados
DESCASC
Racha de viento máxima en m/sg (hora)
DESCASC
Velocidad máxima media en intervalos de 10 minutos(hora)
DESCASC
Precipitaciones diarias en mm
DESCASC
Precipitaciones de 00:00 a 06:00 en mm
DESCASC
Precipitaciones de 06:00 a 12:00 en mm
DESCASC
Precipitaciones de 12:00 a 18:00 en mm
DESCASC
Precipitaciones de 18:00 a 24:00 en mm
DESCASC
17-09-2017 20.2 (17:30) 8.8 (07:30) 14.5 6.39 (13:20) 2.5 (13:20) 0 0 0 0 0
16-09-2017 16.8 (16:10) 9.1 (05:10) 12.9 6.94 (15:20) 3.33 (16:10) 0.6 0.4 0 0.2 0
15-09-2017 17.5 (16:40) 10 (07:50) 13.8 6.94 (13:50) 3.06 (14:10) 7.4 0 0 2 5.4
14-09-2017 18.3 (15:40) 10.7 (00:00) 14.5 7.22 (07:50) 2.5 (10:50) 2 0 1.6 0.4 0
13-09-2017 25.8 (14:10) 12.6 (00:00) 19.2 6.11 (16:00) 1.94 (15:30) 0 0 0 0 0
12-09-2017 21 (16:50) 13.4 (00:00) 17.2 4.72 (14:00) 2.22 (04:30) 2.8 1.4 1.4 0 0
11-09-2017 18.8 (16:40) 14.4 (00:00) 16.6 7.5 (11:30) 2.5 (12:00) 11.4 3.8 5 1.8 0.8
10-09-2017 19.5 (14:30) 12.6 (00:00) 16.1 7.22 (05:50) 3.33 (10:10) 11.8 7.2 4.4 0 0.2
09-09-2017 18.9 (13:30) 12.7 (00:00) 15.8 10.28 (13:50) 3.61 (13:50) 21.2 0.6 2.6 1.8 16.2
08-09-2017 23.9 (15:20) 11.1 (00:00) 17.5 6.11 (15:40) 1.94 (16:10) 0 0 0 0 0
07-09-2017 21 (15:40) 14.4 (00:00) 17.7 4.17 (17:40) 1.67 (17:30) 0 0 0 0 0
06-09-2017 19.3 (17:10) 16.6 (00:00) 17.9 4.72 (10:40) 1.94 (17:30) 7.2 0 6.8 0.4 0
05-09-2017 24.9 (13:10) 15.4 (00:00) 20.1 5.28 (16:20) 2.22 (11:00) 0 0 0 0 0
04-09-2017 24.4 (15:40) 16.5 (00:00) 20.4 5.28 (15:00) 2.22 (13:50) 3.6 3.6 0 0 0
03-09-2017 26.8 (15:10) 12.1 (00:00) 19.4 4.72 (16:00) 2.5 (08:00) 0 0 0 0 0
02-09-2017 22.2 (16:10) 12.4 (00:00) 17.3 5.28 (18:30) 1.67 (02:30) 1.4 1.4 0 0 0
01-09-2017 19.6 (12:30) 11.7 (00:00) 15.7 6.94 (17:30) 2.5 (17:30) 0.2 0 0 0.2 0
31-08-2017 20.6 (16:40) 13.4 (00:00) 17 3.89 (17:40) 1.94 (13:30) 3.4 0.4 0.6 2.4 0
30-08-2017 26.6 (13:30) 15.8 (00:00) 21.2 6.11 (15:10) 2.5 (00:30) 37.6 6.4 0 16 15.2
29-08-2017 27.6 (14:50) 16.5 (00:00) 22.1 7.22 (01:10) 2.78 (01:10) 27.4 26.8 0.2 0 0.4
28-08-2017 27.8 (15:40) 16.8 (00:00) 22.3 6.67 (15:40) 3.33 (02:00) 1 0 0 0.2 0.8
27-08-2017 24 (12:20) 18.9 (00:00) 21.4 4.17 (23:59) 2.22 (22:20) 5.4 0 0 5.4 0
26-08-2017 28.9 (14:10) 18.6 (00:00) 23.8 7.78 (18:00) 2.5 (18:00) 0 0 0 0 0
25-08-2017 25.2 (13:50) 18.1 (00:00) 21.7 6.39 (14:00) 1.94 (15:10) 0.2 0 0 0 0.2
24-08-2017 26.2 (13:20) 18.1 (00:00) 22.2 6.39 (16:20) 1.94 (14:00) 0 0 0 0 0
23-08-2017 25.1 (13:50) 17 (00:00) 21.1 5.28 (15:40) 1.67 (14:40) 0 0 0 0 0
22-08-2017 31.6 (11:40) 19.7 (00:00) 25.7 8.33 (18:10) 3.06 (17:00) 0 0 0 0 0

Gráficas

Temp. máximas Temp. mínimas Temp. medias Precipitaciones Rachas de viento máximas Velocidades máximas media en intervalos de 10 minutos

Datos horarios

Fecha y hora oficial Temperatura (ºC) Velocidad del viento (km/h) Dirección del viento Racha (km/h) Dirección de racha Precipitación (mm) Presión (hPa) Tendencia (hPa) Humedad (%)
2017-09-20 23:00:00 13.3 0 Calma 5 Sudoeste 0 -- -- 92
2017-09-20 22:00:00 14.4 0 Calma 3 Sudoeste 0 -- -- 88
2017-09-20 21:00:00 16 2 Sudoeste 6 Noroeste 0 -- -- 81
2017-09-20 20:00:00 18.2 3 Noroeste 11 Norte 0 -- -- 72
2017-09-20 19:00:00 20.1 5 Norte 14 Nordeste 0 -- -- 66
2017-09-20 18:00:00 21.2 4 Sudeste 14 Nordeste 0 -- -- 63
2017-09-20 17:00:00 22.3 5 Este 17 Nordeste 0 -- -- 60
2017-09-20 16:00:00 22.8 4 Este 15 Norte 0 -- -- 58
2017-09-20 15:00:00 22.8 3 Nordeste 12 Nordeste 0 -- -- 52
2017-09-20 14:00:00 20.4 2 Noroeste 5 Noroeste 0 -- -- 40
2017-09-20 13:00:00 18 3 Noroeste 8 Sudoeste 0 -- -- 62
2017-09-20 12:00:00 14.3 2 Noroeste 5 Nordeste 0 -- -- 83
2017-09-20 11:00:00 10.5 2 Este 4 Este 0 -- -- 100
2017-09-20 10:00:00 8.4 3 Sudoeste 6 Sudoeste 0 -- -- 100
2017-09-20 09:00:00 8 3 Este 8 Sudeste 0 -- -- 100
2017-09-20 08:00:00 8 4 Sudeste 6 Este 0 -- -- 100
2017-09-20 07:00:00 8.4 3 Este 6 Sudeste 0 -- -- 100
2017-09-20 06:00:00 8.6 4 Este 6 Este 0 -- -- 100
2017-09-20 05:00:00 8.9 0 Calma 6 Este 0 -- -- 99
2017-09-20 04:00:00 9.2 3 Sudeste 7 Sudeste 0 -- -- 99
2017-09-20 03:00:00 9.5 3 Sudeste 5 Sudeste 0 -- -- 99
2017-09-20 02:00:00 9.9 0 Calma 4 Oeste 0 -- -- 98
2017-09-20 01:00:00 10.1 0 Calma 4 Sudeste 0 -- -- 98
2017-09-20 00:00:00 10.2 0 Calma 4 Sudoeste 0 -- -- 95
2017-09-19 23:00:00 11 0 Calma 4 Sudoeste 0 -- -- 93
2017-09-19 22:00:00 11.9 2 Sudoeste 4 Sudoeste 0 -- -- 90
2017-09-19 21:00:00 13.5 0 Calma 9 Este 0 -- -- 84
2017-09-19 20:00:00 15.2 4 Este 13 Norte 0 -- -- 77
2017-09-19 19:00:00 17.4 3 Este 9 Nordeste 0 -- -- 68
2017-09-19 18:00:00 17.8 4 Este 18 Nordeste 0 -- -- 68
2017-09-19 17:00:00 17.2 5 Este 18 Norte 0 -- -- 71
2017-09-19 16:00:00 18.1 5 Este 17 Norte 0 -- -- 67
2017-09-19 15:00:00 17.8 6 Nordeste 20 Norte 0 -- -- 68
2017-09-19 14:00:00 18.2 5 Nordeste 21 Nordeste 0 -- -- 70
2017-09-19 13:00:00 17.1 4 Este 11 Noroeste 0 -- -- 75
2017-09-19 12:00:00 16.6 3 Sur 9 Este 0 -- -- 80
2017-09-19 11:00:00 15.1 3 Oeste 8 Oeste 0 -- -- 89
2017-09-19 10:00:00 13 4 Oeste 9 Oeste 0 -- -- 100
2017-09-19 09:00:00 12.3 0 Calma 4 Noroeste 0 -- -- 100
2017-09-19 08:00:00 12.5 0 Calma 3 Nordeste 0 -- -- 100
2017-09-19 07:00:00 12.6 3 Sudoeste 4 Sudoeste 0 -- -- 99
2017-09-19 06:00:00 13 0 Calma 4 Sudeste 0 -- -- 99
2017-09-19 05:00:00 13.2 0 Calma 3 Sudeste 0 -- -- 99
2017-09-19 04:00:00 13.3 2 Sur 4 Sur 0 -- -- 99
2017-09-19 03:00:00 13.6 0 Calma 5 Oeste 0 -- -- 99
2017-09-19 02:00:00 13.7 3 Sur 6 Sudoeste 0.2 -- -- 98
2017-09-19 01:00:00 14.2 0 Calma 9 Sudoeste 0.2 -- -- 99
2017-09-19 00:00:00 14.2 2 Sudeste 5 Nordeste 0.2 -- -- 98
2017-09-18 23:00:00 14.3 3 Sudoeste 6 Sudoeste 0.4 -- -- 98
2017-09-18 22:00:00 14.3 0 Calma 3 Sur 0.2 -- -- 97
2017-09-18 21:00:00 14.4 0 Calma 11 Nordeste 0.2 -- -- 96
2017-09-18 20:00:00 15.1 4 Este 10 Norte 0 -- -- 93
2017-09-18 19:00:00 15.5 0 Calma 4 Norte 0 -- -- 92
2017-09-18 18:00:00 15.4 0 Calma 5 Oeste 0.4 -- -- 93
2017-09-18 17:00:00 15.5 3 Noroeste 8 Oeste 0 -- -- 93
2017-09-18 16:00:00 15.3 3 Oeste 7 Oeste 0.8 -- -- 94
2017-09-18 15:00:00 15.3 3 Este 11 Norte 0.8 -- -- 93
2017-09-18 14:00:00 16.3 4 Norte 10 Norte 0 -- -- 86
2017-09-18 13:00:00 16.4 6 Sudoeste 11 Oeste 0 -- -- 82
2017-09-18 12:00:00 16.7 0 Calma 6 Este 0 -- -- 82
2017-09-18 11:00:00 14.8 2 Nordeste 6 Norte 0 -- -- 94
2017-09-18 10:00:00 13.8 0 Calma 4 Este 0 -- -- 98
2017-09-18 09:00:00 13 0 Calma 3 Sudoeste 0 -- -- 99
2017-09-18 08:00:00 12.8 2 Sur 3 Sudeste 0.4 -- -- 98
2017-09-18 07:00:00 12.8 0 Calma 4 Sudeste 1 -- -- 98
2017-09-18 06:00:00 12.9 0 Calma 3 Sur 1 -- -- 98
2017-09-18 05:00:00 13 0 Calma 6 Sudeste 1.4 -- -- 97
2017-09-18 04:00:00 13.3 2 Sudeste 4 Este 1.8 -- -- 96
2017-09-18 03:00:00 13.7 2 Sudoeste 4 Sudeste 1 -- -- 94
2017-09-18 02:00:00 14 0 Calma 9 Sudoeste 0 -- -- 91
2017-09-18 01:00:00 14.1 2 Este 5 Oeste 0 -- -- 90
2017-09-18 00:00:00 14.3 3 Sudoeste 4 Sudeste 0 -- -- 88
2017-09-17 23:00:00 14.7 2 Sur 5 Sudeste 0 -- -- 88
2017-09-17 22:00:00 15 3 Sudoeste 6 Sudoeste 0 -- -- 84
2017-09-17 21:00:00 15.5 2 Sudeste 10 Este 0 -- -- 83
2017-09-17 20:00:00 16.4 4 Este 13 Este 0 -- -- 81
2017-09-17 19:00:00 17.8 3 Sudeste 14 Nordeste 0 -- -- 66
2017-09-17 18:00:00 19.2 4 Este 17 Norte 0 -- -- 63
2017-09-17 17:00:00 19.8 5 Oeste 21 Oeste 0 -- -- 53
2017-09-17 16:00:00 19.4 7 Noroeste 18 Noroeste 0 -- -- 53
2017-09-17 15:00:00 18.7 7 Noroeste 19 Sudoeste 0 -- -- 54
2017-09-17 14:00:00 18.7 7 Noroeste 23 Sudoeste 0 -- -- 56
2017-09-17 13:00:00 18.1 6 Noroeste 16 Sudoeste 0 -- -- 56
2017-09-17 12:00:00 15.8 3 Nordeste 7 Este 0 -- -- 71
2017-09-17 11:00:00 12.7 2 Sudeste 7 Este 0 -- -- 87
2017-09-17 10:00:00 10.3 0 Calma 6 Oeste 0 -- -- 98
2017-09-17 09:00:00 9.3 2 Sudeste 4 Este 0 -- -- 98
2017-09-17 08:00:00 8.9 0 Calma 5 Este 0 -- -- 98
2017-09-17 07:00:00 8.9 3 Sur 6 Sudoeste 0 -- -- 97
2017-09-17 06:00:00 9.1 2 Oeste 5 Oeste 0 -- -- 98
2017-09-17 05:00:00 9.1 0 Calma 6 Oeste 0 -- -- 97
2017-09-17 04:00:00 9.5 3 Sudeste 9 Sudoeste 0 -- -- 96
2017-09-17 03:00:00 9.7 3 Sur 7 Oeste 0 -- -- 96
2017-09-17 02:00:00 9.9 3 Sur 6 Sudoeste 0 -- -- 95
2017-09-17 01:00:00 10.1 3 Este 5 Sur 0 -- -- 95
2017-09-17 00:00:00 10.4 2 Este 8 Oeste 0 -- -- 94
2017-09-16 23:00:00 11 0 Calma 5 Sudoeste 0 -- -- 93
2017-09-16 22:00:00 11.5 4 Sudeste 7 Sudeste 0 -- -- 90
2017-09-16 21:00:00 12.1 0 Calma 5 Este 0 -- -- 84
2017-09-16 20:00:00 13.1 2 Sudoeste 8 Sudoeste 0 -- -- 76
2017-09-16 19:00:00 14.5 4 Sudoeste 18 Noroeste 0 -- -- 67
2017-09-16 18:00:00 14.9 6 Oeste 18 Norte 0 -- -- 66
2017-09-16 17:00:00 16.3 7 Noroeste 25 Oeste 0 -- -- 59
2017-09-16 16:00:00 16.7 11 Oeste 25 Noroeste 0 -- -- 57
2017-09-16 15:00:00 15.5 7 Noroeste 19 Oeste 0 -- -- 70
2017-09-16 14:00:00 15.2 10 Noroeste 22 Sudoeste 0.2 -- -- 72
2017-09-16 13:00:00 15 4 Noroeste 10 Oeste 0 -- -- 72
2017-09-16 12:00:00 14.7 4 Noroeste 11 Oeste 0 -- -- 70
2017-09-16 11:00:00 12.7 4 Sur 8 Sur 0 -- -- 83
2017-09-16 10:00:00 10.5 0 Calma 6 Noroeste 0 -- -- 100
2017-09-16 09:00:00 9.7 0 Calma 7 Este 0 -- -- 100
2017-09-16 08:00:00 9.3 0 Calma 6 Sudoeste 0 -- -- 100
2017-09-16 07:00:00 9.2 3 Sudeste 4 Oeste 0 -- -- 100
2017-09-16 06:00:00 9.3 2 Sudoeste 8 Sudeste 0 -- -- 100
2017-09-16 05:00:00 9.3 3 Sudeste 7 Sudeste 0 -- -- 99
2017-09-16 04:00:00 9.8 5 Sudoeste 8 Sudoeste 0.2 -- -- 99
2017-09-16 03:00:00 9.8 3 Sudeste 5 Sudeste 0.2 -- -- 99
2017-09-16 02:00:00 10.1 2 Sur 5 Sudoeste 0 -- -- 99
2017-09-16 01:00:00 10 0 Calma 8 Este 0 -- -- 98
2017-09-16 00:00:00 10.7 3 Sudeste 8 Sudoeste 0.2 -- -- 98
2017-09-15 23:00:00 10.6 3 Sur 5 Sudeste 0 -- -- 96
2017-09-15 22:00:00 10.9 2 Sur 11 Sudoeste 1.2 -- -- 93
2017-09-15 21:00:00 11.9 5 Oeste 10 Noroeste 0.6 -- -- 93
2017-09-15 20:00:00 12.5 6 Sudoeste 18 Oeste 0.2 -- -- 89
2017-09-15 19:00:00 13.1 9 Sudoeste 19 Oeste 3.2 -- -- 88
2017-09-15 18:00:00 14.8 5 Sudoeste 21 Noroeste 0.4 -- -- 81
2017-09-15 17:00:00 17 5 Norte 14 Oeste 0 -- -- 65
2017-09-15 16:00:00 16.7 4 Noroeste 17 Noroeste 0 -- -- 75
2017-09-15 15:00:00 16.2 3 Este 24 Norte 1.2 -- -- 79
2017-09-15 14:00:00 17.3 8 Noroeste 25 Oeste 0.4 -- -- 67
2017-09-15 13:00:00 15.9 10 Oeste 21 Oeste 0 -- -- 73
2017-09-15 12:00:00 15.4 9 Oeste 18 Sudoeste 0 -- -- 77
2017-09-15 11:00:00 14.4 5 Noroeste 10 Oeste 0 -- -- 85
2017-09-15 10:00:00 11 3 Sudeste 6 Este 0 -- -- 99
2017-09-15 09:00:00 10.1 0 Calma 5 Sudoeste 0 -- -- 99
2017-09-15 08:00:00 10 5 Sudoeste 9 Oeste 0 -- -- 99
2017-09-15 07:00:00 10.2 0 Calma 7 Sudeste 0 -- -- 98
2017-09-15 06:00:00 10.3 4 Sudoeste 7 Sudoeste 0 -- -- 98
2017-09-15 05:00:00 10.6 3 Sudoeste 4 Sudoeste 0 -- -- 97
2017-09-15 04:00:00 11 0 Calma 5 Sudeste 0 -- -- 96
2017-09-15 03:00:00 11.1 4 Sudoeste 6 Sur 0 -- -- 96
2017-09-15 02:00:00 11.1 3 Sur 9 Oeste 0 -- -- 97
2017-09-15 01:00:00 10.8 0 Calma 8 Sur 0 -- -- 97
2017-09-15 00:00:00 10.7 0 Calma 4 Sudoeste 0 -- -- 95
2017-09-14 23:00:00 11.6 0 Calma 5 Sudoeste 0 -- -- 92
2017-09-14 22:00:00 12.6 2 Sudoeste 7 Este 0 -- -- 91
2017-09-14 21:00:00 13.6 0 Calma 10 Sudoeste 0 -- -- 86
2017-09-14 20:00:00 15.5 5 Oeste 13 Este 0 -- -- 75
2017-09-14 19:00:00 16.1 3 Nordeste 9 Sudoeste 0 -- -- 78
2017-09-14 18:00:00 16.2 3 Nordeste 15 Norte 0.2 -- -- 81
2017-09-14 17:00:00 16.9 8 Norte 22 Noroeste 0 -- -- 68
2017-09-14 16:00:00 18.2 8 Norte 18 Norte 0 -- -- 64
2017-09-14 15:00:00 17.9 5 Nordeste 16 Noroeste 0.2 -- -- 68
2017-09-14 14:00:00 17.1 4 Este 12 Sudoeste 0 -- -- 77
2017-09-14 13:00:00 15.2 3 Noroeste 10 Sudoeste 0 -- -- 85
2017-09-14 12:00:00 14.2 5 Sudoeste 16 Sudoeste 0 -- -- 86
2017-09-14 11:00:00 13.8 7 Sudoeste 19 Oeste 0 -- -- 87
2017-09-14 10:00:00 13.6 4 Noroeste 19 Noroeste 1 -- -- 96
2017-09-14 09:00:00 14.6 5 Nordeste 21 Oeste 0.4 -- -- 94
2017-09-14 08:00:00 16.2 8 Nordeste 26 Norte 0.2 -- -- 93
2017-09-14 07:00:00 17.1 2 Este 8 Sudeste 0 -- -- 95
2017-09-14 06:00:00 17.3 0 Calma 5 Este 0 -- -- 94
2017-09-14 05:00:00 17.4 0 Calma 4 Sudeste 0 -- -- 95
2017-09-14 04:00:00 17.3 0 Calma 7 Sudoeste 0 -- -- 93
2017-09-14 03:00:00 17.3 4 Sudoeste 6 Sudoeste 0 -- -- 95
2017-09-14 02:00:00 17.1 0 Calma 5 Sur 0 -- -- 93
2017-09-14 01:00:00 17.7 3 Este 5 Sudeste 0 -- -- 91
2017-09-14 00:00:00 18.2 3 Sudoeste 4 Sudoeste 0 -- -- 90
2017-09-13 23:00:00 18.7 2 Sur 6 Oeste 0 -- -- 88
2017-09-13 22:00:00 19.1 0 Calma 4 Sudoeste 0 -- -- 86
2017-09-13 21:00:00 19.5 0 Calma 11 Este 0 -- -- 84
2017-09-13 20:00:00 19.8 3 Este 16 Nordeste 0 -- -- 82
2017-09-13 19:00:00 21.4 5 Sudeste 20 Nordeste 0 -- -- 76
2017-09-13 18:00:00 22.3 6 Este 19 Nordeste 0 -- -- 71
2017-09-13 17:00:00 22.9 6 Este 18 Norte 0 -- -- 69
2017-09-13 16:00:00 23.5 7 Este 22 Nordeste 0 -- -- 67
2017-09-13 15:00:00 24.3 6 Este 18 Sudeste 0 -- -- 65
2017-09-13 14:00:00 25.5 2 Nordeste 8 Nordeste 0 -- -- 61
2017-09-13 13:00:00 23.7 2 Sur 9 Oeste 0 -- -- 65
2017-09-13 12:00:00 21.5 3 Oeste 6 Oeste 0 -- -- 69
2017-09-13 11:00:00 17.9 3 Oeste 7 Noroeste 0 -- -- 87
2017-09-13 10:00:00 14.2 3 Este 5 Este 0 -- -- 100
2017-09-13 09:00:00 12.9 0 Calma 4 Sudeste 0 -- -- 100
2017-09-13 08:00:00 12.6 0 Calma 4 Este 0 -- -- 99
2017-09-13 07:00:00 12.8 0 Calma 3 Sudoeste 0 -- -- 99
2017-09-13 06:00:00 13.1 0 Calma 5 Sudoeste 0 -- -- 99
2017-09-13 05:00:00 13.4 3 Sudoeste 5 Oeste 0 -- -- 99
2017-09-13 04:00:00 13.6 2 Sudeste 4 Este 0 -- -- 99
2017-09-13 03:00:00 13.7 0 Calma 4 Sudoeste 0 -- -- 97
2017-09-13 02:00:00 14.1 0 Calma 4 Sudeste 0 -- -- 97
2017-09-13 01:00:00 14.5 0 Calma 4 Este 0 -- -- 97
2017-09-13 00:00:00 14.8 2 Sudoeste 4 Sudoeste 0 -- -- 95
2017-09-12 23:00:00 15.4 0 Calma 4 Oeste 0 -- -- 93
2017-09-12 22:00:00 16.1 0 Calma 8 Sudeste 0 -- -- 91
2017-09-12 21:00:00 16.9 3 Sur 7 Sur 0 -- -- 86
2017-09-12 20:00:00 18.4 0 Calma 9 Este 0 -- -- 80
2017-09-12 19:00:00 18.8 3 Este 13 Norte 0 -- -- 77
2017-09-12 18:00:00 19.4 4 Este 13 Nordeste 0 -- -- 75
2017-09-12 17:00:00 20.8 4 Este 12 Nordeste 0 -- -- 69
2017-09-12 16:00:00 20.3 4 Oeste 16 Sudoeste 0 -- -- 67
2017-09-12 15:00:00 19.8 4 Oeste 13 Oeste 0 -- -- 69
2017-09-12 14:00:00 19.8 7 Sudoeste 17 Oeste 0 -- -- 70
2017-09-12 13:00:00 19.1 7 Sudoeste 12 Sudoeste 0 -- -- 72
2017-09-12 12:00:00 17 3 Sudeste 8 Este 0 -- -- 87
2017-09-12 11:00:00 15.3 0 Calma 4 Oeste 0.2 -- -- 96
2017-09-12 10:00:00 14.3 0 Calma 5 Sudoeste 0.2 -- -- 99
2017-09-12 09:00:00 13.6 3 Sudoeste 6 Oeste 0 -- -- 99
2017-09-12 08:00:00 13.5 2 Oeste 7 Sudeste 0.2 -- -- 99
2017-09-12 07:00:00 13.5 4 Sudeste 8 Sudeste 0.8 -- -- 98
2017-09-12 06:00:00 13.6 4 Sudeste 8 Este 0 -- -- 97
2017-09-12 05:00:00 14 6 Sudoeste 12 Sudoeste 0 -- -- 92
2017-09-12 04:00:00 14 5 Sur 15 Oeste 1 -- -- 96
2017-09-12 03:00:00 14.2 5 Sudoeste 14 Sudoeste 0 -- -- 94
2017-09-12 02:00:00 14.1 4 Sudeste 9 Sudoeste 0.4 -- -- 96
2017-09-12 01:00:00 14.4 3 Sudoeste 13 Oeste 0 -- -- 93
2017-09-12 00:00:00 14.4 5 Oeste 14 Sudoeste 0.8 -- -- 94
2017-09-11 23:00:00 15.7 3 Norte 10 Noroeste 0 -- -- 90
2017-09-11 22:00:00 16.1 2 Sudeste 5 Sudoeste 0 -- -- 91
2017-09-11 21:00:00 16.4 4 Sudoeste 9 Sur 0 -- -- 82
2017-09-11 20:00:00 16.8 3 Sur 14 Sudoeste 0 -- -- 85
2017-09-11 19:00:00 17.3 3 Sur 12 Oeste 0 -- -- 85
2017-09-11 18:00:00 17.6 4 Sudoeste 14 Noroeste 0 -- -- 82
2017-09-11 17:00:00 18.4 6 Noroeste 25 Noroeste 0 -- -- 78
2017-09-11 16:00:00 18 8 Sudoeste 19 Oeste 0 -- -- 79
2017-09-11 15:00:00 17.7 4 Sur 20 Noroeste 0 -- -- 86
2017-09-11 14:00:00 16.7 6 Noroeste 15 Oeste 1.8 -- -- 93
2017-09-11 13:00:00 17.2 4 Este 12 Noroeste 0 -- -- 91
2017-09-11 12:00:00 16.3 9 Noroeste 27 Noroeste 1 -- -- 93
2017-09-11 11:00:00 16.6 6 Oeste 21 Oeste 0.6 -- -- 95
2017-09-11 10:00:00 16.4 3 Oeste 18 Oeste 0 -- -- 95
2017-09-11 09:00:00 16.2 4 Oeste 15 Oeste 0.6 -- -- 98
2017-09-11 08:00:00 16 3 Noroeste 12 Norte 1.8 -- -- 99
2017-09-11 07:00:00 16.3 4 Este 13 Nordeste 1 -- -- 99
2017-09-11 06:00:00 16.4 3 Sur 13 Este 2.2 -- -- 100
2017-09-11 05:00:00 15.7 3 Sudoeste 12 Sur 0.6 -- -- 99
2017-09-11 04:00:00 15.5 3 Sudeste 6 Sudeste 0.6 -- -- 99
2017-09-11 03:00:00 15.4 2 Sudeste 9 Oeste 0.2 -- -- 98
2017-09-11 02:00:00 15.3 2 Este 5 Sudoeste 0.2 -- -- 97
2017-09-11 01:00:00 15.3 4 Sudeste 8 Sudeste 0 -- -- 95
2017-09-11 00:00:00 15.3 3 Sur 6 Sudeste 0 -- -- 92
2017-09-10 23:00:00 15.7 0 Calma 5 Este 0 -- -- 90
2017-09-10 22:00:00 15.9 0 Calma 5 Sudoeste 0 -- -- 89
2017-09-10 21:00:00 16.3 2 Sudeste 7 Sudeste 0 -- -- 86
2017-09-10 20:00:00 17.2 2 Sudeste 9 Sudoeste 0.2 -- -- 81
2017-09-10 19:00:00 18.2 4 Sudoeste 15 Oeste 0 -- -- 72
2017-09-10 18:00:00 18.9 4 Oeste 16 Noroeste 0 -- -- 69
2017-09-10 17:00:00 19.2 5 Noroeste 19 Oeste 0 -- -- 68
2017-09-10 16:00:00 18.4 7 Oeste 25 Norte 0 -- -- 70
2017-09-10 15:00:00 19.3 12 Noroeste 25 Noroeste 0 -- -- 65
2017-09-10 14:00:00 18.1 8 Oeste 19 Sudoeste 0 -- -- 75
2017-09-10 13:00:00 16.5 8 Oeste 21 Oeste 0 -- -- 85
2017-09-10 12:00:00 15.2 7 Oeste 19 Oeste 1 -- -- 91
2017-09-10 11:00:00 15.6 9 Oeste 25 Sudoeste 0.4 -- -- 85
2017-09-10 10:00:00 14.3 9 Oeste 22 Oeste 0.2 -- -- 90
2017-09-10 09:00:00 13.3 9 Oeste 19 Oeste 0 -- -- 94
2017-09-10 08:00:00 13.1 6 Oeste 19 Sudoeste 1.8 -- -- 95
2017-09-10 07:00:00 13.1 9 Oeste 21 Sudoeste 1 -- -- 95
2017-09-10 06:00:00 13 9 Oeste 26 Oeste 1.4 -- -- 93
2017-09-10 05:00:00 12.7 5 Oeste 16 Oeste 0.2 -- -- 94
2017-09-10 04:00:00 12.6 8 Sudoeste 15 Sudoeste 1.2 -- -- 94
2017-09-10 03:00:00 12.7 6 Oeste 23 Oeste 2.8 -- -- 94
2017-09-10 02:00:00 12.6 3 Sudeste 13 Sudoeste 0.8 -- -- 95
2017-09-10 01:00:00 12.7 7 Sudoeste 18 Sudoeste 0.8 -- -- 94
2017-09-10 00:00:00 12.7 2 Sudoeste 10 Oeste 2 -- -- 97
2017-09-09 23:00:00 13 0 Calma 16 Oeste 2.2 -- -- 95
2017-09-09 22:00:00 13.2 7 Sudoeste 13 Oeste 4.8 -- -- 95
2017-09-09 21:00:00 13.4 2 Sur 16 Sudoeste 0.8 -- -- 94
2017-09-09 20:00:00 13.8 4 Oeste 18 Noroeste 3.4 -- -- 93
2017-09-09 19:00:00 14.8 6 Oeste 22 Noroeste 3 -- -- 89
2017-09-09 18:00:00 17.8 9 Noroeste 22 Noroeste 0 -- -- 69
2017-09-09 17:00:00 16.8 5 Oeste 21 Oeste 0 -- -- 74
2017-09-09 16:00:00 16.6 8 Noroeste 33 Sudoeste 0.6 -- -- 80
2017-09-09 15:00:00 18.5 8 Oeste 22 Sudoeste 0 -- -- 73
2017-09-09 14:00:00 15.8 7 Oeste 37 Oeste 1.2 -- -- 86
2017-09-09 13:00:00 17.6 7 Oeste 22 Sudoeste 0 -- -- 73
2017-09-09 12:00:00 18 8 Oeste 20 Oeste 0 -- -- 75
2017-09-09 11:00:00 16.1 5 Sur 8 Sudoeste 0 -- -- 87
2017-09-09 10:00:00 15.5 5 Sudoeste 14 Sudoeste 0 -- -- 90
2017-09-09 09:00:00 15 9 Sudoeste 17 Sudoeste 0.2 -- -- 91
2017-09-09 08:00:00 15.3 8 Sudoeste 23 Oeste 0.8 -- -- 91
2017-09-09 07:00:00 15.4 6 Oeste 19 Oeste 1.6 -- -- 95
2017-09-09 06:00:00 16.2 6 Noroeste 26 Oeste 0.6 -- -- 92
2017-09-09 05:00:00 16.6 4 Sudeste 14 Sudoeste 0 -- -- 89
2017-09-09 04:00:00 15.7 4 Oeste 9 Noroeste 0 -- -- 90
2017-09-09 03:00:00 15.6 0 Calma 9 Oeste 0 -- -- 90
2017-09-09 02:00:00 15.3 3 Sur 9 Oeste 0 -- -- 90
2017-09-09 01:00:00 15.1 4 Sudoeste 10 Oeste 0 -- -- 91
2017-09-09 00:00:00 14.8 0 Calma 4 Sudeste 0 -- -- 91
2017-09-08 23:00:00 15.1 3 Sudeste 5 Sudeste 0 -- -- 89
2017-09-08 22:00:00 15.9 0 Calma 5 Oeste 0 -- -- 84
2017-09-08 21:00:00 17.1 2 Norte 15 Norte 0 -- -- 79
2017-09-08 20:00:00 18.5 3 Este 17 Este 0 -- -- 72
2017-09-08 19:00:00 20.6 4 Este 12 Este 0 -- -- 64
2017-09-08 18:00:00 21.5 3 Nordeste 15 Este 0 -- -- 62
2017-09-08 17:00:00 21.2 6 Este 17 Este 0 -- -- 61
2017-09-08 16:00:00 22.2 7 Este 22 Nordeste 0 -- -- 58
2017-09-08 15:00:00 22.9 3 Norte 8 Oeste 0 -- -- 56
2017-09-08 14:00:00 21.8 4 Sudoeste 9 Noroeste 0 -- -- 58
2017-09-08 13:00:00 20.6 3 Nordeste 6 Este 0 -- -- 62
2017-09-08 12:00:00 18 3 Norte 6 Este 0 -- -- 75
2017-09-08 11:00:00 15.2 0 Calma 4 Oeste 0 -- -- 87
2017-09-08 10:00:00 12 0 Calma 6 Oeste 0 -- -- 100
2017-09-08 09:00:00 11.2 2 Sudoeste 6 Oeste 0 -- -- 100
2017-09-08 08:00:00 11.1 2 Este 5 Sudoeste 0 -- -- 99
2017-09-08 07:00:00 11.5 3 Sudoeste 5 Este 0 -- -- 99
2017-09-08 06:00:00 12 4 Sudeste 6 Este 0 -- -- 98
2017-09-08 05:00:00 12.2 0 Calma 3 Oeste 0 -- -- 97
2017-09-08 04:00:00 12.5 0 Calma 4 Sudoeste 0 -- -- 96
2017-09-08 03:00:00 13.4 0 Calma 2 Sudeste 0 -- -- 95
2017-09-08 02:00:00 13.8 0 Calma 3 Sudeste 0 -- -- 95
2017-09-08 01:00:00 14.1 0 Calma 5 Sudeste 0 -- -- 94
2017-09-08 00:00:00 14.4 0 Calma 3 Norte 0 -- -- 93
2017-09-07 23:00:00 14.6 0 Calma 5 Sudeste 0 -- -- 91
2017-09-07 22:00:00 15.6 0 Calma 4 Sudoeste 0 -- -- 87
2017-09-07 21:00:00 17 0 Calma 5 Este 0 -- -- 80
2017-09-07 20:00:00 18.2 2 Nordeste 11 Norte 0 -- -- 73
2017-09-07 19:00:00 18.8 4 Norte 14 Noroeste 0 -- -- 71
2017-09-07 18:00:00 19.5 4 Norte 15 Norte 0 -- -- 68
2017-09-07 17:00:00 20.4 4 Nordeste 14 Nordeste 0 -- -- 66
2017-09-07 16:00:00 20.7 4 Nordeste 11 Norte 0 -- -- 62
2017-09-07 15:00:00 20.5 4 Nordeste 15 Norte 0 -- -- 64
2017-09-07 14:00:00 19.9 3 Nordeste 8 Norte 0 -- -- 71
2017-09-07 13:00:00 17.7 3 Este 6 Este 0 -- -- 82
2017-09-07 12:00:00 16.9 4 Sudoeste 8 Oeste 0 -- -- 86
2017-09-07 11:00:00 16.3 0 Calma 5 Sudeste 0 -- -- 91
2017-09-07 10:00:00 15.5 0 Calma 6 Este 0 -- -- 96
2017-09-07 09:00:00 15.1 0 Calma 4 Sudoeste 0 -- -- 97
2017-09-07 08:00:00 15 0 Calma 5 Sur 0 -- -- 97
2017-09-07 07:00:00 15.1 0 Calma 5 Sudoeste 0 -- -- 97
2017-09-07 06:00:00 15.3 0 Calma 4 Sudoeste 0 -- -- 96
2017-09-07 05:00:00 15.5 0 Calma 4 Sudeste 0 -- -- 96
2017-09-07 04:00:00 15.6 0 Calma 4 Oeste 0 -- -- 95
2017-09-07 03:00:00 15.8 2 Sudeste 4 Sudeste 0 -- -- 94
2017-09-07 02:00:00 16.1 0 Calma 3 Sudoeste 0 -- -- 93
2017-09-07 01:00:00 16.2 3 Sudoeste 5 Oeste 0 -- -- 90
2017-09-07 00:00:00 16.6 3 Sudoeste 6 Sur 0 -- -- 88
2017-09-06 23:00:00 16.9 0 Calma 5 Oeste 0 -- -- 87
2017-09-06 22:00:00 17.3 0 Calma 6 Nordeste 0 -- -- 85
2017-09-06 21:00:00 17.7 2 Nordeste 9 Nordeste 0 -- -- 84
2017-09-06 20:00:00 18.2 3 Norte 9 Norte 0 -- -- 80
2017-09-06 19:00:00 18.6 3 Nordeste 12 Norte 0 -- -- 76
2017-09-06 18:00:00 18.9 4 Norte 17 Norte 0 -- -- 74
2017-09-06 17:00:00 19.2 4 Nordeste 11 Este 0 -- -- 79
2017-09-06 16:00:00 18.5 3 Nordeste 13 Nordeste 0 -- -- 86
2017-09-06 15:00:00 18.7 4 Norte 12 Noroeste 0 -- -- 84
2017-09-06 14:00:00 18.1 4 Este 13 Este 0 -- -- 91
2017-09-06 13:00:00 17.5 5 Este 14 Nordeste 0.4 -- -- 95
2017-09-06 12:00:00 17.9 4 Nordeste 14 Norte 0.8 -- -- 97
2017-09-06 11:00:00 17.7 5 Este 17 Nordeste 1.4 -- -- 98
2017-09-06 10:00:00 17.6 3 Nordeste 13 Norte 0.6 -- -- 99
2017-09-06 09:00:00 17.2 3 Norte 13 Sudoeste 2.4 -- -- 99
2017-09-06 08:00:00 17 2 Sudeste 3 Sudeste 0.8 -- -- 98
2017-09-06 07:00:00 17 0 Calma 4 Oeste 0.8 -- -- 97
2017-09-06 06:00:00 17 0 Calma 3 Sudeste 0 -- -- 96
2017-09-06 05:00:00 16.9 0 Calma 4 Sudoeste 0 -- -- 96
2017-09-06 04:00:00 17.2 3 Sudoeste 6 Sudoeste 0 -- -- 95
2017-09-06 03:00:00 17.6 0 Calma 4 Sudeste 0 -- -- 95
2017-09-06 02:00:00 17.7 0 Calma 4 Sudoeste 0 -- -- 94
2017-09-06 01:00:00 18.1 0 Calma 5 Sur 0 -- -- 92
2017-09-06 00:00:00 19 0 Calma 4 Oeste 0 -- -- 90
2017-09-05 23:00:00 19.4 2 Sudoeste 4 Sudoeste 0 -- -- 87
2017-09-05 22:00:00 20.1 0 Calma 9 Este 0 -- -- 85
2017-09-05 21:00:00 20.5 3 Este 12 Nordeste 0 -- -- 83
2017-09-05 20:00:00 21.3 3 Este 10 Norte 0 -- -- 78
2017-09-05 19:00:00 21.8 4 Nordeste 12 Noroeste 0 -- -- 76
2017-09-05 18:00:00 22.5 5 Nordeste 15 Nordeste 0 -- -- 72
2017-09-05 17:00:00 23.3 4 Nordeste 19 Nordeste 0 -- -- 68
2017-09-05 16:00:00 22.5 6 Este 18 Nordeste 0 -- -- 72
2017-09-05 15:00:00 23.8 6 Nordeste 18 Nordeste 0 -- -- 68
2017-09-05 14:00:00 24.8 6 Este 18 Nordeste 0 -- -- 67
2017-09-05 13:00:00 24.8 4 Este 12 Sudeste 0 -- -- 69
2017-09-05 12:00:00 22.6 4 Norte 12 Norte 0 -- -- 76
2017-09-05 11:00:00 19.4 8 Sudoeste 11 Oeste 0 -- -- 87
2017-09-05 10:00:00 16.3 3 Oeste 9 Oeste 0 -- -- 100
2017-09-05 09:00:00 15.5 2 Este 7 Sudeste 0 -- -- 100
2017-09-05 08:00:00 15.5 3 Este 6 Sudeste 0 -- -- 99
2017-09-05 07:00:00 15.6 2 Este 8 Este 0 -- -- 99
2017-09-05 06:00:00 15.7 2 Sudeste 4 Sudeste 0 -- -- 99
2017-09-05 05:00:00 16.1 0 Calma 4 Noroeste 0 -- -- 99
2017-09-05 04:00:00 16.3 0 Calma 4 Este 0 -- -- 98
2017-09-05 03:00:00 16.4 2 Noroeste 6 Oeste 0 -- -- 98
2017-09-05 02:00:00 16.5 3 Sudeste 4 Este 0 -- -- 97
2017-09-05 01:00:00 16.9 0 Calma 5 Este 0 -- -- 95
2017-09-05 00:00:00 17.8 2 Sudeste 5 Este 0 -- -- 93
2017-09-04 23:00:00 19 2 Sudeste 5 Este 0 -- -- 91
2017-09-04 22:00:00 19.6 0 Calma 5 Nordeste 0 -- -- 89
2017-09-04 21:00:00 19.9 2 Sudeste 15 Este 0 -- -- 86
2017-09-04 20:00:00 20.6 5 Este 13 Sudeste 0 -- -- 82
2017-09-04 19:00:00 21.6 5 Este 17 Este 0 -- -- 80
2017-09-04 18:00:00 23.1 4 Este 13 Sudeste 0 -- -- 73
2017-09-04 17:00:00 22.7 5 Nordeste 15 Este 0 -- -- 74
2017-09-04 16:00:00 22.9 5 Este 16 Norte 0 -- -- 76
2017-09-04 15:00:00 24.2 8 Oeste 19 Sudoeste 0 -- -- 68
2017-09-04 14:00:00 21.3 8 Sudoeste 14 Oeste 0 -- -- 81
2017-09-04 13:00:00 21.1 4 Norte 8 Noroeste 0 -- -- 85
2017-09-04 12:00:00 19.3 0 Calma 5 Sudeste 0 -- -- 93
2017-09-04 11:00:00 18.1 3 Oeste 8 Sudoeste 0 -- -- 97
2017-09-04 10:00:00 17.4 4 Sudoeste 7 Sudoeste 0 -- -- 97
2017-09-04 09:00:00 17.1 2 Este 6 Oeste 0 -- -- 98
2017-09-04 08:00:00 16.6 3 Sur 5 Este 0 -- -- 98
2017-09-04 07:00:00 16.6 0 Calma 5 Sudoeste 0 -- -- 98
2017-09-04 06:00:00 16.6 0 Calma 8 Este 2 -- -- 97
2017-09-04 05:00:00 16.8 0 Calma 5 Sur 1.6 -- -- 96
2017-09-04 04:00:00 16.8 3 Nordeste 11 Sudeste 0 -- -- 95
2017-09-04 03:00:00 16.6 4 Oeste 9 Oeste 0 -- -- 95
2017-09-04 02:00:00 17.1 3 Sudeste 8 Oeste 0 -- -- 94
2017-09-04 01:00:00 17.6 0 Calma 8 Sudeste 0 -- -- 91
2017-09-04 00:00:00 18.6 4 Sudoeste 13 Oeste 0 -- -- 87
2017-09-03 23:00:00 19.4 3 Sur 6 Noroeste 0 -- -- 84
2017-09-03 22:00:00 20.5 2 Sudeste 6 Este 0 -- -- 76
2017-09-03 21:00:00 21.3 2 Sudeste 9 Norte 0 -- -- 69
2017-09-03 20:00:00 22.4 3 Oeste 10 Este 0 -- -- 63
2017-09-03 19:00:00 23.8 3 Sudeste 12 Este 0 -- -- 59
2017-09-03 18:00:00 25.8 2 Sudoeste 9 Sudeste 0 -- -- 52
2017-09-03 17:00:00 25 4 Nordeste 15 Este 0 -- -- 51
2017-09-03 16:00:00 26.1 5 Este 17 Este 0 -- -- 48
2017-09-03 15:00:00 26.4 3 Nordeste 14 Noroeste 0 -- -- 40
2017-09-03 14:00:00 24.1 3 Sudeste 7 Este 0 -- -- 45
2017-09-03 13:00:00 20.9 2 Noroeste 6 Este 0 -- -- 62
2017-09-03 12:00:00 17.6 0 Calma 7 Sudeste 0 -- -- 78
2017-09-03 11:00:00 15.6 4 Este 10 Oeste 0 -- -- 87
2017-09-03 10:00:00 14 3 Este 11 Sudoeste 0 -- -- 94
2017-09-03 09:00:00 13.2 0 Calma 12 Sudeste 0 -- -- 94
2017-09-03 08:00:00 12.7 9 Sudoeste 17 Oeste 0 -- -- 97
2017-09-03 07:00:00 12.3 4 Sur 10 Oeste 0 -- -- 98
2017-09-03 06:00:00 12.2 2 Sur 6 Oeste 0 -- -- 98
2017-09-03 05:00:00 12.1 0 Calma 4 Sudeste 0 -- -- 98
2017-09-03 04:00:00 12.1 0 Calma 4 Sudeste 0 -- -- 98
2017-09-03 03:00:00 12.2 2 Sudeste 4 Este 0 -- -- 97
2017-09-03 02:00:00 12.6 2 Sudoeste 4 Sudoeste 0 -- -- 96
2017-09-03 01:00:00 13.2 3 Sudeste 4 Sudeste 0 -- -- 95
2017-09-03 00:00:00 13.7 0 Calma 4 Sudoeste 0 -- -- 93
2017-09-02 23:00:00 14.2 2 Sur 6 Oeste 0 -- -- 91
2017-09-02 22:00:00 15.2 0 Calma 8 Sudeste 0 -- -- 87
2017-09-02 21:00:00 17.2 3 Este 10 Este 0 -- -- 78
2017-09-02 20:00:00 18.7 4 Este 13 Norte 0 -- -- 71
2017-09-02 19:00:00 20.6 4 Este 19 Norte 0 -- -- 63
2017-09-02 18:00:00 21.6 4 Nordeste 15 Norte 0 -- -- 61
2017-09-02 17:00:00 22.2 4 Nordeste 16 Norte 0 -- -- 61
2017-09-02 16:00:00 22.1 5 Nordeste 14 Nordeste 0 -- -- 62
2017-09-02 15:00:00 21.6 5 Nordeste 13 Norte 0 -- -- 63
2017-09-02 14:00:00 20.3 4 Nordeste 12 Nordeste 0 -- -- 66
2017-09-02 13:00:00 19.9 5 Oeste 14 Oeste 0 -- -- 68
2017-09-02 12:00:00 18.7 4 Noroeste 13 Norte 0 -- -- 71
2017-09-02 11:00:00 15.6 3 Este 5 Sudeste 0 -- -- 92
2017-09-02 10:00:00 13.7 2 Norte 5 Noroeste 0 -- -- 100
2017-09-02 09:00:00 12.7 0 Calma 8 Sudoeste 0 -- -- 100
2017-09-02 08:00:00 12.5 3 Sudoeste 5 Sudoeste 0 -- -- 99
2017-09-02 07:00:00 12.6 3 Oeste 5 Sudoeste 0 -- -- 98
2017-09-02 06:00:00 13.2 0 Calma 6 Sudeste 0.2 -- -- 98
2017-09-02 05:00:00 13.6 2 Este 5 Sudoeste 0 -- -- 98
2017-09-02 04:00:00 13.8 0 Calma 9 Sudoeste 0 -- -- 96
2017-09-02 03:00:00 14.4 4 Sudeste 14 Sudoeste 1.2 -- -- 95
2017-09-02 02:00:00 14.4 2 Este 9 Sudeste 0 -- -- 92
2017-09-02 01:00:00 14.6 4 Norte 12 Sudoeste 0 -- -- 91
2017-09-02 00:00:00 15.1 2 Noroeste 6 Este 0 -- -- 89
2017-09-01 23:00:00 15.5 3 Este 16 Sudoeste 0 -- -- 88
2017-09-01 22:00:00 16.2 2 Este 17 Sudoeste 0 -- -- 81
2017-09-01 21:00:00 16.5 9 Sudoeste 19 Oeste 0 -- -- 77
2017-09-01 20:00:00 17.3 8 Noroeste 22 Oeste 0 -- -- 75
2017-09-01 19:00:00 18.3 8 Oeste 22 Oeste 0 -- -- 71
2017-09-01 18:00:00 19.5 8 Oeste 25 Noroeste 0 -- -- 67
2017-09-01 17:00:00 18.8 7 Noroeste 16 Norte 0 -- -- 71
2017-09-01 16:00:00 17.8 7 Sudoeste 13 Sur 0.2 -- -- 80
2017-09-01 15:00:00 18.9 8 Este 14 Norte 0 -- -- 74
2017-09-01 14:00:00 17.9 5 Este 15 Este 0 -- -- 81
2017-09-01 13:00:00 19.4 6 Noroeste 19 Oeste 0 -- -- 65
2017-09-01 12:00:00 18.5 8 Oeste 18 Oeste 0 -- -- 69
2017-09-01 11:00:00 15.5 0 Calma 4 Norte 0 -- -- 91
2017-09-01 10:00:00 13.8 2 Oeste 4 Noroeste 0 -- -- 99
2017-09-01 09:00:00 12.4 0 Calma 4 Sudoeste 0 -- -- 100
2017-09-01 08:00:00 11.8 3 Oeste 5 Oeste 0 -- -- 100
2017-09-01 07:00:00 11.7 3 Sudeste 5 Noroeste 0 -- -- 100
2017-09-01 06:00:00 11.8 0 Calma 5 Sur 0 -- -- 99
2017-09-01 05:00:00 12 0 Calma 4 Sudeste 0 -- -- 99
2017-09-01 04:00:00 12 0 Calma 5 Oeste 0 -- -- 99
2017-09-01 03:00:00 12.3 0 Calma 4 Sudeste 0 -- -- 98
2017-09-01 02:00:00 12.6 3 Sudeste 4 Sudeste 0 -- -- 97
2017-09-01 01:00:00 12.9 2 Sudoeste 5 Sudoeste 0 -- -- 96
2017-09-01 00:00:00 13.4 3 Sudeste 5 Oeste 0 -- -- 96
2017-08-31 23:00:00 13.8 0 Calma 5 Sudoeste 0 -- -- 93
2017-08-31 22:00:00 15 3 Sudoeste 6 Sudoeste 0 -- -- 89
2017-08-31 21:00:00 16.6 2 Sur 6 Nordeste 0 -- -- 81
2017-08-31 20:00:00 18.3 2 Este 9 Norte 0 -- -- 75
2017-08-31 19:00:00 19.2 4 Nordeste 13 Norte 0 -- -- 72
2017-08-31 18:00:00 19.2 4 Este 14 Norte 0 -- -- 71
2017-08-31 17:00:00 20.5 5 Este 11 Nordeste 0 -- -- 67
2017-08-31 16:00:00 19.7 3 Este 6 Sudoeste 0 -- -- 68
2017-08-31 15:00:00 18.3 2 Oeste 11 Norte 0 -- -- 78
2017-08-31 14:00:00 17.4 5 Oeste 12 Oeste 0 -- -- 88
2017-08-31 13:00:00 15.8 3 Oeste 10 Oeste 2.4 -- -- 95
2017-08-31 12:00:00 16.2 5 Oeste 10 Oeste 0.2 -- -- 93
2017-08-31 11:00:00 15.8 4 Sudoeste 12 Sudoeste 0.2 -- -- 95
2017-08-31 10:00:00 15.5 3 Sur 5 Nordeste 0.2 -- -- 96
2017-08-31 09:00:00 15.1 2 Sudeste 4 Sudeste 0 -- -- 98
2017-08-31 08:00:00 14.9 0 Calma 4 Sudoeste 0 -- -- 98
2017-08-31 07:00:00 14.9 3 Sudoeste 4 Sur 0 -- -- 98
2017-08-31 06:00:00 14.9 3 Sudeste 5 Sudoeste 0 -- -- 98
2017-08-31 05:00:00 15 2 Sudoeste 4 Sur 0 -- -- 98
2017-08-31 04:00:00 15 0 Calma 5 Sudoeste 0 -- -- 97
2017-08-31 03:00:00 15.1 2 Norte 8 Sudoeste 0 -- -- 96
2017-08-31 02:00:00 15.1 4 Sudoeste 8 Sudoeste 0.4 -- -- 96
2017-08-31 01:00:00 15.5 3 Sur 13 Sudoeste 0 -- -- 93
2017-08-31 00:00:00 15.8 5 Sudoeste 16 Sudoeste 0.8 -- -- 92
2017-08-30 23:00:00 16.5 4 Noroeste 16 Noroeste 0.6 -- -- 95
2017-08-30 22:00:00 17.3 0 Calma 5 Sudoeste 3 -- -- 98
2017-08-30 21:00:00 17.4 0 Calma 12 Este 0.4 -- -- 97
2017-08-30 20:00:00 17.5 6 Este 19 Norte 1.6 -- -- 96
2017-08-30 19:00:00 18.1 4 Nordeste 18 Sudoeste 8.8 -- -- 94
2017-08-30 18:00:00 20.1 6 Norte 17 Nordeste 0.6 -- -- 95
2017-08-30 17:00:00 20.6 3 Este 18 Norte 15.4 -- -- 92
2017-08-30 16:00:00 23.3 5 Este 22 Noroeste 0 -- -- 77
2017-08-30 15:00:00 24.5 6 Este 21 Nordeste 0 -- -- 74
2017-08-30 14:00:00 25.6 6 Este 14 Norte 0 -- -- 69
2017-08-30 13:00:00 25.5 3 Norte 9 Noroeste 0 -- -- 65
2017-08-30 12:00:00 23.7 4 Noroeste 9 Noroeste 0 -- -- 74
2017-08-30 11:00:00 20.9 3 Noroeste 13 Oeste 0 -- -- 89
2017-08-30 10:00:00 19.1 5 Oeste 9 Oeste 0 -- -- 96
2017-08-30 09:00:00 18.2 0 Calma 7 Este 0 -- -- 98
2017-08-30 08:00:00 18 5 Sudoeste 9 Oeste 0 -- -- 98
2017-08-30 07:00:00 18.3 3 Sudeste 6 Sudeste 0 -- -- 98
2017-08-30 06:00:00 18.6 3 Sudoeste 6 Oeste 0 -- -- 98
2017-08-30 05:00:00 18.7 0 Calma 5 Sudoeste 0 -- -- 97
2017-08-30 04:00:00 18.9 2 Sur 5 Sudoeste 0 -- -- 96
2017-08-30 03:00:00 19.1 2 Sur 8 Noroeste 0 -- -- 96
2017-08-30 02:00:00 19.3 2 Este 8 Nordeste 0 -- -- 96
2017-08-30 01:00:00 19.4 3 Sur 15 Sudoeste 6.4 -- -- 96
2017-08-30 00:00:00 20.1 3 Sudoeste 6 Noroeste 0.4 -- -- 93
2017-08-29 23:00:00 20.4 3 Oeste 5 Oeste 0 -- -- 89
2017-08-29 22:00:00 20.8 0 Calma 7 Sudoeste 0 -- -- 88
2017-08-29 21:00:00 21.1 3 Oeste 10 Norte 0 -- -- 86
2017-08-29 20:00:00 21.7 3 Sudeste 15 Nordeste 0 -- -- 85
2017-08-29 19:00:00 22.5 5 Este 17 Nordeste 0 -- -- 83
2017-08-29 18:00:00 24.3 6 Este 22 Este 0 -- -- 76
2017-08-29 17:00:00 25.1 7 Este 19 Nordeste 0 -- -- 73
2017-08-29 16:00:00 26.2 6 Este 17 Nordeste 0 -- -- 71
2017-08-29 15:00:00 27.4 4 Sudeste 11 Noroeste 0 -- -- 66
2017-08-29 14:00:00 26 3 Oeste 12 Este 0 -- -- 63
2017-08-29 13:00:00 23.8 3 Nordeste 10 Este 0 -- -- 76
2017-08-29 12:00:00 19.5 3 Sur 8 Sur 0.2 -- -- 93
2017-08-29 11:00:00 19 4 Sur 8 Oeste 0 -- -- 99
2017-08-29 10:00:00 17.3 3 Oeste 9 Sudeste 0 -- -- 100
2017-08-29 09:00:00 16.7 3 Este 7 Este 0 -- -- 100
2017-08-29 08:00:00 16.5 0 Calma 5 Sudoeste 0 -- -- 99
2017-08-29 07:00:00 16.6 0 Calma 4 Sudeste 0 -- -- 99
2017-08-29 06:00:00 16.8 2 Sudeste 7 Sudoeste 0.2 -- -- 98
2017-08-29 05:00:00 17.2 2 Sudeste 9 Sudoeste 0 -- -- 98
2017-08-29 04:00:00 17.5 3 Sudoeste 10 Oeste 0 -- -- 97
2017-08-29 03:00:00 17.6 4 Sudeste 8 Sudeste 3.6 -- -- 98
2017-08-29 02:00:00 17.8 3 Sur 26 Sudeste 20.8 -- -- 96
2017-08-29 01:00:00 18.9 5 Sudeste 13 Sudoeste 2.2 -- -- 89
2017-08-29 00:00:00 19.8 4 Norte 11 Oeste 0.2 -- -- 90
2017-08-28 23:00:00 19.7 3 Oeste 8 Oeste 0 -- -- 92
2017-08-28 22:00:00 20.3 4 Sudeste 9 Sudeste 0 -- -- 91
2017-08-28 21:00:00 21.1 3 Sur 10 Sudeste 0 -- -- 84
2017-08-28 20:00:00 22.1 3 Sur 12 Sudeste 0.2 -- -- 82
2017-08-28 19:00:00 23.9 3 Sur 14 Oeste 0.4 -- -- 79
2017-08-28 18:00:00 26.1 6 Sudoeste 15 Oeste 0 -- -- 56
2017-08-28 17:00:00 27.6 3 Sur 21 Oeste 0 -- -- 50
2017-08-28 16:00:00 27.4 9 Oeste 24 Sudoeste 0 -- -- 53
2017-08-28 15:00:00 26.3 5 Sudoeste 15 Este 0 -- -- 66
2017-08-28 14:00:00 23.6 5 Este 17 Sudeste 0.2 -- -- 85
2017-08-28 13:00:00 24.8 5 Oeste 13 Oeste 0 -- -- 76
2017-08-28 12:00:00 23.7 9 Oeste 18 Sudoeste 0 -- -- 78
2017-08-28 11:00:00 20.2 3 Sudeste 12 Oeste 0 -- -- 89
2017-08-28 10:00:00 19 0 Calma 9 Oeste 0 -- -- 92
2017-08-28 09:00:00 17.9 0 Calma 7 Sudoeste 0 -- -- 93
2017-08-28 08:00:00 17.1 4 Sudoeste 8 Oeste 0 -- -- 94
2017-08-28 07:00:00 16.9 0 Calma 5 Este 0 -- -- 94
2017-08-28 06:00:00 17.2 2 Este 5 Sudoeste 0 -- -- 92
2017-08-28 05:00:00 17.7 0 Calma 6 Sudeste 0 -- -- 89
2017-08-28 04:00:00 18.9 2 Nordeste 11 Sudeste 0 -- -- 85
2017-08-28 03:00:00 20.2 3 Este 15 Sudoeste 0 -- -- 80
2017-08-28 02:00:00 22.5 12 Sudoeste 18 Sudoeste 0 -- -- 66
2017-08-28 01:00:00 23.3 7 Sudoeste 12 Sur 0 -- -- 63
2017-08-28 00:00:00 23.2 5 Sur 15 Sur 0 -- -- 64
2017-08-27 23:00:00 22.1 3 Sudeste 13 Sudoeste 0 -- -- 73
2017-08-27 22:00:00 22.1 5 Sudoeste 14 Oeste 0 -- -- 74
2017-08-27 21:00:00 21.9 6 Sudoeste 13 Sudoeste 0 -- -- 78
2017-08-27 20:00:00 22.1 6 Sudoeste 12 Oeste 0 -- -- 84
2017-08-27 19:00:00 22.2 2 Noroeste 10 Este 0 -- -- 84
2017-08-27 18:00:00 22.2 4 Sudeste 13 Sudeste 2 -- -- 84
2017-08-27 17:00:00 20.5 3 Sur 9 Sudoeste 2.4 -- -- 93
2017-08-27 16:00:00 22 4 Sudoeste 12 Sudeste 0.2 -- -- 89
2017-08-27 15:00:00 22.4 3 Sur 9 Sudoeste 0.6 -- -- 90
2017-08-27 14:00:00 22.8 2 Noroeste 8 Este 0.2 -- -- 88
2017-08-27 13:00:00 23.4 5 Sur 9 Sur 0 -- -- 75
2017-08-27 12:00:00 23.5 2 Sur 6 Sudeste 0 -- -- 73
2017-08-27 11:00:00 23.4 2 Noroeste 10 Sudoeste 0 -- -- 75
2017-08-27 10:00:00 22.2 3 Sudeste 8 Norte 0 -- -- 71
2017-08-27 09:00:00 20.3 0 Calma 9 Nordeste 0 -- -- 80
2017-08-27 08:00:00 19.3 3 Sudeste 9 Sudoeste 0 -- -- 78
2017-08-27 07:00:00 18.9 0 Calma 9 Este 0 -- -- 80
2017-08-27 06:00:00 19 0 Calma 5 Sudeste 0 -- -- 81
2017-08-27 05:00:00 19.3 0 Calma 5 Sudoeste 0 -- -- 80
2017-08-27 04:00:00 20.1 2 Este 7 Sudeste 0 -- -- 78
2017-08-27 03:00:00 20.2 2 Sudoeste 9 Sudoeste 0 -- -- 78
2017-08-27 02:00:00 20.6 3 Oeste 9 Este 0 -- -- 82
2017-08-27 01:00:00 20.6 4 Sudeste 14 Oeste 0 -- -- 82
2017-08-27 00:00:00 20.4 9 Sudoeste 15 Sudoeste 0 -- -- 93
2017-08-26 23:00:00 20.6 3 Este 6 Sudoeste 0 -- -- 92
2017-08-26 22:00:00 20.6 0 Calma 8 Noroeste 0 -- -- 91
2017-08-26 21:00:00 21.1 3 Sudoeste 17 Este 0 -- -- 88
2017-08-26 20:00:00 22.4 6 Este 21 Nordeste 0 -- -- 83
2017-08-26 19:00:00 23.9 7 Este 23 Noroeste 0 -- -- 78
2017-08-26 18:00:00 25.1 9 Este 28 Nordeste 0 -- -- 76
2017-08-26 17:00:00 28.1 4 Noroeste 14 Norte 0 -- -- 70
2017-08-26 16:00:00 27.2 4 Nordeste 16 Noroeste 0 -- -- 72
2017-08-26 15:00:00 28 4 Sur 15 Norte 0 -- -- 69
2017-08-26 14:00:00 28.6 3 Nordeste 10 Noroeste 0 -- -- 64
2017-08-26 13:00:00 25.6 4 Norte 12 Norte 0 -- -- 74
2017-08-26 12:00:00 23.9 4 Noroeste 9 Norte 0 -- -- 78
2017-08-26 11:00:00 21.7 2 Sudoeste 7 Noroeste 0 -- -- 86
2017-08-26 10:00:00 19.9 3 Oeste 6 Sudoeste 0 -- -- 93
2017-08-26 09:00:00 18.8 0 Calma 2 Norte 0 -- -- 97
2017-08-26 08:00:00 18.6 0 Calma 3 Norte 0 -- -- 97
2017-08-26 07:00:00 18.6 0 Calma 3 Oeste 0 -- -- 97
2017-08-26 06:00:00 18.8 0 Calma 4 Este 0 -- -- 97
2017-08-26 05:00:00 18.8 2 Este 5 Este 0 -- -- 97
2017-08-26 04:00:00 18.8 0 Calma 8 Norte 0 -- -- 97
2017-08-26 03:00:00 18.8 0 Calma 5 Noroeste 0 -- -- 97
2017-08-26 02:00:00 18.9 0 Calma 4 Norte 0 -- -- 97
2017-08-26 01:00:00 19 0 Calma 5 Este 0 -- -- 97
2017-08-26 00:00:00 19 0 Calma 8 Noroeste 0 -- -- 97
2017-08-25 23:00:00 19.2 3 Este 8 Norte 0.2 -- -- 96
2017-08-25 22:00:00 19.4 2 Sudeste 9 Este 0 -- -- 95
2017-08-25 21:00:00 19.5 4 Este 13 Este 0 -- -- 93
2017-08-25 20:00:00 19.9 5 Este 14 Nordeste 0 -- -- 92
2017-08-25 19:00:00 21.1 3 Este 14 Norte 0 -- -- 85
2017-08-25 18:00:00 21.7 5 Nordeste 13 Nordeste 0 -- -- 82
2017-08-25 17:00:00 23.4 5 Este 18 Este 0 -- -- 75
2017-08-25 16:00:00 23.9 7 Este 22 Este 0 -- -- 74
2017-08-25 15:00:00 24.7 6 Este 21 Nordeste 0 -- -- 72
2017-08-25 14:00:00 25.2 6 Este 23 Nordeste 0 -- -- 70
2017-08-25 13:00:00 24.9 5 Este 15 Norte 0 -- -- 71
2017-08-25 12:00:00 23.9 3 Este 14 Este 0 -- -- 75
2017-08-25 11:00:00 21.8 4 Norte 8 Nordeste 0 -- -- 82
2017-08-25 10:00:00 19 0 Calma 0 Calma 0 -- -- 95
2017-08-25 09:00:00 18.4 0 Calma 0 Calma 0 -- -- 97
2017-08-25 08:00:00 18.1 0 Calma 0 Calma 0 -- -- 97
2017-08-25 07:00:00 18.4 0 Calma 0 Calma 0 -- -- 96
2017-08-25 06:00:00 18.6 0 Calma 0 Calma 0 -- -- 96
2017-08-25 05:00:00 18.9 0 Calma 0 Calma 0 -- -- 95
2017-08-25 04:00:00 19.1 0 Calma 0 Calma 0 -- -- 95
2017-08-25 03:00:00 19.2 0 Calma 2 Sur 0 -- -- 95
2017-08-25 02:00:00 19.1 0 Calma 8 Este 0 -- -- 95
2017-08-25 01:00:00 19.2 2 Este 9 Este 0 -- -- 95
2017-08-25 00:00:00 19.4 2 Este 10 Nordeste 0 -- -- 95
2017-08-24 23:00:00 19.8 2 Este 9 Nordeste 0 -- -- 93
2017-08-24 22:00:00 20.1 4 Nordeste 14 Nordeste 0 -- -- 90
2017-08-24 21:00:00 20.5 4 Este 13 Nordeste 0 -- -- 89
2017-08-24 20:00:00 21.5 5 Este 15 Norte 0 -- -- 85
2017-08-24 19:00:00 22.8 3 Nordeste 13 Nordeste 0 -- -- 77
2017-08-24 18:00:00 23.6 4 Este 17 Este 0 -- -- 72
2017-08-24 17:00:00 24.9 6 Nordeste 23 Norte 0 -- -- 68
2017-08-24 16:00:00 25.3 5 Este 22 Nordeste 0 -- -- 67
2017-08-24 15:00:00 25.1 7 Este 19 Nordeste 0 -- -- 70
2017-08-24 14:00:00 25.6 7 Este 17 Este 0 -- -- 71
2017-08-24 13:00:00 26 4 Sudeste 15 Nordeste 0 -- -- 68
2017-08-24 12:00:00 24.2 5 Norte 11 Norte 0 -- -- 71
2017-08-24 11:00:00 22.8 3 Norte 9 Norte 0 -- -- 77
2017-08-24 10:00:00 20.3 3 Norte 6 Norte 0 -- -- 88
2017-08-24 09:00:00 18.8 2 Norte 4 Noroeste 0 -- -- 97
2017-08-24 08:00:00 18.2 0 Calma 4 Sur 0 -- -- 96
2017-08-24 07:00:00 18.7 0 Calma 2 Sudeste 0 -- -- 94
2017-08-24 06:00:00 18.9 0 Calma 6 Norte 0 -- -- 96
2017-08-24 05:00:00 19 0 Calma 2 Nordeste 0 -- -- 95
2017-08-24 04:00:00 19.2 0 Calma 4 Norte 0 -- -- 94
2017-08-24 03:00:00 19.5 0 Calma 4 Este 0 -- -- 92
2017-08-24 02:00:00 19.5 3 Este 10 Este 0 -- -- 92
2017-08-24 01:00:00 19.6 0 Calma 9 Noroeste 0 -- -- 90
2017-08-24 00:00:00 19.7 2 Nordeste 8 Nordeste 0 -- -- 89
2017-08-23 23:00:00 19.7 4 Norte 13 Nordeste 0 -- -- 88
2017-08-23 22:00:00 20.2 2 Este 11 Norte 0 -- -- 85
2017-08-23 21:00:00 20.5 3 Nordeste 13 Norte 0 -- -- 83
2017-08-23 20:00:00 21.1 4 Este 15 Nordeste 0 -- -- 80
2017-08-23 19:00:00 22.2 5 Este 16 Nordeste 0 -- -- 77
2017-08-23 18:00:00 23.3 5 Este 17 Nordeste 0 -- -- 74
2017-08-23 17:00:00 23.5 5 Este 17 Norte 0 -- -- 75
2017-08-23 16:00:00 23.4 5 Este 19 Este 0 -- -- 74
2017-08-23 15:00:00 23.5 5 Este 16 Norte 0 -- -- 73
2017-08-23 14:00:00 25.1 5 Este 18 Noroeste 0 -- -- 67
2017-08-23 13:00:00 24.5 4 Nordeste 10 Sudeste 0 -- -- 67
2017-08-23 12:00:00 22.8 4 Nordeste 13 Nordeste 0 -- -- 71
2017-08-23 11:00:00 21.5 3 Nordeste 8 Nordeste 0 -- -- 74
2017-08-23 10:00:00 19.8 3 Norte 6 Noroeste 0 -- -- 85
2017-08-23 09:00:00 18.3 0 Calma 5 Oeste 0 -- -- 91
2017-08-23 08:00:00 17.5 2 Oeste 3 Sur 0 -- -- 93
2017-08-23 07:00:00 17.4 0 Calma 4 Noroeste 0 -- -- 94
2017-08-23 06:00:00 17.1 0 Calma 3 Sudeste 0 -- -- 94
2017-08-23 05:00:00 17.1 2 Sudeste 3 Sudeste 0 -- -- 94
2017-08-23 04:00:00 17.3 3 Sudoeste 5 Este 0 -- -- 93
2017-08-23 03:00:00 17.8 2 Sudeste 4 Este 0 -- -- 90
2017-08-23 02:00:00 18.9 0 Calma 8 Sudoeste 0 -- -- 84
2017-08-23 01:00:00 19.6 5 Sudoeste 9 Oeste 0 -- -- 82
2017-08-23 00:00:00 20.3 2 Oeste 9 Noroeste 0 -- -- 88
2017-08-22 23:00:00 20.7 3 Este 8 Este 0 -- -- 87
2017-08-22 22:00:00 21 2 Nordeste 8 Nordeste 0 -- -- 85
2017-08-22 21:00:00 21.4 4 Nordeste 11 Este 0 -- -- 83
2017-08-22 20:00:00 22.1 4 Este 22 Este 0 -- -- 80
2017-08-22 19:00:00 23.2 11 Este 30 Este 0 -- -- 77
2017-08-22 18:00:00 24.4 10 Este 23 Este 0 -- -- 75
2017-08-22 17:00:00 25.6 11 Este 26 Nordeste 0 -- -- 71
2017-08-22 16:00:00 26.9 10 Este 27 Nordeste 0 -- -- 66
2017-08-22 15:00:00 28.9 7 Este 23 Este 0 -- -- 55
2017-08-22 14:00:00 29.1 7 Este 28 Norte 0 -- -- 53
2017-08-22 13:00:00 29.5 7 Sudeste 21 Norte 0 -- -- 56
2017-08-22 12:00:00 31 7 Norte 14 Norte 0 -- -- 50
2017-08-22 11:00:00 30 6 Oeste 13 Oeste 0 -- -- 49
2017-08-22 10:00:00 28.2 4 Oeste 12 Sur 0 -- -- 50
2017-08-22 09:00:00 25.7 3 Sur 12 Norte 0 -- -- 61
2017-08-22 08:00:00 25.2 4 Sudeste 13 Sudoeste 0 -- -- 60
2017-08-22 07:00:00 27.3 6 Sudoeste 22 Oeste 0 -- -- 52
2017-08-22 06:00:00 28.2 6 Sur 19 Sur 0 -- -- 49
2017-08-22 05:00:00 27.4 5 Sudoeste 15 Oeste 0 -- -- 50
2017-08-22 04:00:00 24.4 2 Sudeste 10 Sudeste 0 -- -- 52
2017-08-22 03:00:00 23.7 4 Sudeste 14 Sur 0 -- -- 49
2017-08-22 02:00:00 19.7 2 Sudeste 9 Este 0 -- -- 77
2017-08-22 01:00:00 20 3 Sudeste 8 Oeste 0 -- -- 86
2017-08-22 00:00:00 20.6 0 Calma 5 Sudoeste 0 -- -- 85